sensor_id;sensor_type;location;lat;lon;timestamp;P1;durP1;ratioP1;P2;durP2;ratioP2
72156;SDS011;60035;52.122;5.406;2023-06-10T00:01:40;9.18;;;4.82;;
72156;SDS011;60035;52.122;5.406;2023-06-10T00:04:06;12.45;;;6.55;;
72156;SDS011;60035;52.122;5.406;2023-06-10T00:06:33;9.80;;;5.47;;
72156;SDS011;60035;52.122;5.406;2023-06-10T00:09:02;11.27;;;5.40;;
72156;SDS011;60035;52.122;5.406;2023-06-10T00:11:32;11.98;;;5.07;;
72156;SDS011;60035;52.122;5.406;2023-06-10T00:13:59;10.25;;;5.00;;
72156;SDS011;60035;52.122;5.406;2023-06-10T00:16:26;10.75;;;4.50;;
72156;SDS011;60035;52.122;5.406;2023-06-10T00:18:53;9.32;;;5.10;;
72156;SDS011;60035;52.122;5.406;2023-06-10T00:21:22;9.77;;;5.30;;
72156;SDS011;60035;52.122;5.406;2023-06-10T00:23:48;9.23;;;5.15;;
72156;SDS011;60035;52.122;5.406;2023-06-10T00:26:15;11.55;;;4.90;;
72156;SDS011;60035;52.122;5.406;2023-06-10T00:28:42;9.73;;;4.95;;
72156;SDS011;60035;52.122;5.406;2023-06-10T00:31:11;11.13;;;5.35;;
72156;SDS011;60035;52.122;5.406;2023-06-10T00:33:37;8.80;;;4.95;;
72156;SDS011;60035;52.122;5.406;2023-06-10T00:36:04;9.48;;;4.72;;
72156;SDS011;60035;52.122;5.406;2023-06-10T00:38:30;10.02;;;4.78;;
72156;SDS011;60035;52.122;5.406;2023-06-10T00:40:58;10.98;;;5.00;;
72156;SDS011;60035;52.122;5.406;2023-06-10T00:43:24;8.82;;;5.07;;
72156;SDS011;60035;52.122;5.406;2023-06-10T00:45:51;10.10;;;5.15;;
72156;SDS011;60035;52.122;5.406;2023-06-10T00:48:18;9.07;;;5.07;;
72156;SDS011;60035;52.122;5.406;2023-06-10T00:50:46;10.27;;;5.20;;
72156;SDS011;60035;52.122;5.406;2023-06-10T00:53:13;12.45;;;5.40;;
72156;SDS011;60035;52.122;5.406;2023-06-10T00:55:40;10.90;;;5.25;;
72156;SDS011;60035;52.122;5.406;2023-06-10T00:58:07;10.23;;;4.88;;
72156;SDS011;60035;52.122;5.406;2023-06-10T01:00:34;9.13;;;4.63;;
72156;SDS011;60035;52.122;5.406;2023-06-10T01:03:01;8.55;;;4.70;;
72156;SDS011;60035;52.122;5.406;2023-06-10T01:05:34;9.63;;;4.78;;
72156;SDS011;60035;52.122;5.406;2023-06-10T01:10:59;10.55;;;4.40;;
72156;SDS011;60035;52.122;5.406;2023-06-10T01:13:27;12.70;;;4.95;;
72156;SDS011;60035;52.122;5.406;2023-06-10T01:15:56;9.80;;;4.82;;
72156;SDS011;60035;52.122;5.406;2023-06-10T01:18:23;8.80;;;4.55;;
72156;SDS011;60035;52.122;5.406;2023-06-10T01:20:49;10.02;;;4.82;;
72156;SDS011;60035;52.122;5.406;2023-06-10T01:23:18;11.18;;;4.85;;
72156;SDS011;60035;52.122;5.406;2023-06-10T01:25:49;8.95;;;4.75;;
72156;SDS011;60035;52.122;5.406;2023-06-10T01:28:35;9.15;;;4.30;;
72156;SDS011;60035;52.122;5.406;2023-06-10T01:31:29;9.27;;;4.55;;
72156;SDS011;60035;52.122;5.406;2023-06-10T01:34:03;10.70;;;4.68;;
72156;SDS011;60035;52.122;5.406;2023-06-10T01:36:40;11.00;;;4.85;;
72156;SDS011;60035;52.122;5.406;2023-06-10T01:39:10;9.25;;;4.80;;
72156;SDS011;60035;52.122;5.406;2023-06-10T01:41:37;10.05;;;4.70;;
72156;SDS011;60035;52.122;5.406;2023-06-10T01:44:04;10.65;;;4.55;;
72156;SDS011;60035;52.122;5.406;2023-06-10T01:46:31;10.88;;;4.90;;
72156;SDS011;60035;52.122;5.406;2023-06-10T01:48:57;10.25;;;4.30;;
72156;SDS011;60035;52.122;5.406;2023-06-10T01:51:24;9.48;;;4.30;;
72156;SDS011;60035;52.122;5.406;2023-06-10T01:53:50;9.43;;;4.55;;
72156;SDS011;60035;52.122;5.406;2023-06-10T01:56:17;9.13;;;4.55;;
72156;SDS011;60035;52.122;5.406;2023-06-10T01:58:45;9.70;;;5.10;;
72156;SDS011;60035;52.122;5.406;2023-06-10T02:01:13;11.32;;;4.15;;
72156;SDS011;60035;52.122;5.406;2023-06-10T02:03:40;10.80;;;4.85;;
72156;SDS011;60035;52.122;5.406;2023-06-10T02:06:07;10.45;;;5.15;;
72156;SDS011;60035;52.122;5.406;2023-06-10T02:08:33;11.05;;;4.47;;
72156;SDS011;60035;52.122;5.406;2023-06-10T02:11:01;9.50;;;4.43;;
72156;SDS011;60035;52.122;5.406;2023-06-10T02:13:27;11.40;;;4.53;;
72156;SDS011;60035;52.122;5.406;2023-06-10T02:15:54;12.15;;;4.53;;
72156;SDS011;60035;52.122;5.406;2023-06-10T02:18:20;9.80;;;4.05;;
72156;SDS011;60035;52.122;5.406;2023-06-10T02:20:48;9.18;;;4.72;;
72156;SDS011;60035;52.122;5.406;2023-06-10T02:23:14;9.32;;;4.63;;
72156;SDS011;60035;52.122;5.406;2023-06-10T02:25:41;8.63;;;4.32;;
72156;SDS011;60035;52.122;5.406;2023-06-10T02:28:07;9.43;;;3.92;;
72156;SDS011;60035;52.122;5.406;2023-06-10T02:30:34;9.45;;;4.10;;
72156;SDS011;60035;52.122;5.406;2023-06-10T02:33:01;10.40;;;4.85;;
72156;SDS011;60035;52.122;5.406;2023-06-10T02:35:28;10.60;;;5.07;;
72156;SDS011;60035;52.122;5.406;2023-06-10T02:37:54;8.52;;;4.30;;
72156;SDS011;60035;52.122;5.406;2023-06-10T02:40:21;9.05;;;4.63;;
72156;SDS011;60035;52.122;5.406;2023-06-10T02:42:48;9.20;;;4.68;;
72156;SDS011;60035;52.122;5.406;2023-06-10T02:45:15;9.20;;;4.75;;
72156;SDS011;60035;52.122;5.406;2023-06-10T02:47:42;9.55;;;4.30;;
72156;SDS011;60035;52.122;5.406;2023-06-10T02:50:09;11.30;;;4.70;;
72156;SDS011;60035;52.122;5.406;2023-06-10T02:52:39;10.68;;;4.03;;
72156;SDS011;60035;52.122;5.406;2023-06-10T02:55:05;9.60;;;4.57;;
72156;SDS011;60035;52.122;5.406;2023-06-10T02:57:33;12.05;;;4.43;;
72156;SDS011;60035;52.122;5.406;2023-06-10T02:59:59;10.27;;;5.00;;
72156;SDS011;60035;52.122;5.406;2023-06-10T03:02:26;8.93;;;4.20;;
72156;SDS011;60035;52.122;5.406;2023-06-10T03:04:55;10.10;;;4.93;;
72156;SDS011;60035;52.122;5.406;2023-06-10T03:07:22;11.05;;;5.22;;
72156;SDS011;60035;52.122;5.406;2023-06-10T03:09:49;11.35;;;4.80;;
72156;SDS011;60035;52.122;5.406;2023-06-10T03:12:16;9.77;;;5.05;;
72156;SDS011;60035;52.122;5.406;2023-06-10T03:14:43;10.38;;;4.50;;
72156;SDS011;60035;52.122;5.406;2023-06-10T03:17:09;10.70;;;4.60;;
72156;SDS011;60035;52.122;5.406;2023-06-10T03:19:36;13.68;;;5.10;;
72156;SDS011;60035;52.122;5.406;2023-06-10T03:22:08;9.88;;;4.30;;
72156;SDS011;60035;52.122;5.406;2023-06-10T03:24:38;11.45;;;5.35;;
72156;SDS011;60035;52.122;5.406;2023-06-10T03:27:07;10.10;;;4.57;;
72156;SDS011;60035;52.122;5.406;2023-06-10T03:29:34;10.57;;;4.75;;
72156;SDS011;60035;52.122;5.406;2023-06-10T03:32:01;9.75;;;5.55;;
72156;SDS011;60035;52.122;5.406;2023-06-10T03:34:28;12.70;;;4.72;;
72156;SDS011;60035;52.122;5.406;2023-06-10T03:36:54;9.82;;;4.43;;
72156;SDS011;60035;52.122;5.406;2023-06-10T03:39:20;12.13;;;4.38;;
72156;SDS011;60035;52.122;5.406;2023-06-10T03:41:47;9.10;;;4.28;;
72156;SDS011;60035;52.122;5.406;2023-06-10T03:44:14;8.35;;;4.10;;
72156;SDS011;60035;52.122;5.406;2023-06-10T03:46:41;10.30;;;4.57;;
72156;SDS011;60035;52.122;5.406;2023-06-10T03:49:07;10.35;;;4.57;;
72156;SDS011;60035;52.122;5.406;2023-06-10T03:51:36;10.13;;;4.90;;
72156;SDS011;60035;52.122;5.406;2023-06-10T03:54:02;11.27;;;4.80;;
72156;SDS011;60035;52.122;5.406;2023-06-10T03:56:29;12.38;;;4.32;;
72156;SDS011;60035;52.122;5.406;2023-06-10T03:58:55;12.75;;;4.50;;
72156;SDS011;60035;52.122;5.406;2023-06-10T04:01:22;9.15;;;4.25;;
72156;SDS011;60035;52.122;5.406;2023-06-10T04:03:49;10.07;;;5.05;;
72156;SDS011;60035;52.122;5.406;2023-06-10T04:06:17;9.65;;;4.80;;
72156;SDS011;60035;52.122;5.406;2023-06-10T04:08:44;11.45;;;4.82;;
72156;SDS011;60035;52.122;5.406;2023-06-10T04:11:11;10.32;;;4.45;;
72156;SDS011;60035;52.122;5.406;2023-06-10T04:13:37;12.48;;;4.57;;
72156;SDS011;60035;52.122;5.406;2023-06-10T04:16:04;11.88;;;5.07;;
72156;SDS011;60035;52.122;5.406;2023-06-10T04:18:31;9.38;;;4.80;;
72156;SDS011;60035;52.122;5.406;2023-06-10T04:20:57;9.65;;;4.15;;
72156;SDS011;60035;52.122;5.406;2023-06-10T04:23:24;10.95;;;4.68;;
72156;SDS011;60035;52.122;5.406;2023-06-10T04:25:50;9.82;;;4.85;;
72156;SDS011;60035;52.122;5.406;2023-06-10T04:28:17;9.60;;;4.70;;
72156;SDS011;60035;52.122;5.406;2023-06-10T04:30:44;10.23;;;4.40;;
72156;SDS011;60035;52.122;5.406;2023-06-10T04:33:12;15.43;;;4.97;;
72156;SDS011;60035;52.122;5.406;2023-06-10T04:35:38;13.88;;;4.90;;
72156;SDS011;60035;52.122;5.406;2023-06-10T04:38:05;14.63;;;5.22;;
72156;SDS011;60035;52.122;5.406;2023-06-10T04:40:32;11.38;;;5.57;;
72156;SDS011;60035;52.122;5.406;2023-06-10T04:42:58;11.05;;;5.30;;
72156;SDS011;60035;52.122;5.406;2023-06-10T04:45:27;13.05;;;4.80;;
72156;SDS011;60035;52.122;5.406;2023-06-10T04:47:56;10.13;;;5.15;;
72156;SDS011;60035;52.122;5.406;2023-06-10T04:50:24;11.57;;;4.70;;
72156;SDS011;60035;52.122;5.406;2023-06-10T04:52:51;10.38;;;5.40;;
72156;SDS011;60035;52.122;5.406;2023-06-10T04:55:17;10.77;;;4.40;;
72156;SDS011;60035;52.122;5.406;2023-06-10T04:57:44;10.25;;;4.75;;
72156;SDS011;60035;52.122;5.406;2023-06-10T05:00:11;9.65;;;5.22;;
72156;SDS011;60035;52.122;5.406;2023-06-10T05:02:37;11.27;;;4.75;;
72156;SDS011;60035;52.122;5.406;2023-06-10T05:05:04;10.88;;;4.95;;
72156;SDS011;60035;52.122;5.406;2023-06-10T05:07:31;11.20;;;5.53;;
72156;SDS011;60035;52.122;5.406;2023-06-10T05:09:57;10.70;;;5.25;;
72156;SDS011;60035;52.122;5.406;2023-06-10T05:12:24;10.25;;;5.10;;
72156;SDS011;60035;52.122;5.406;2023-06-10T05:14:50;14.00;;;5.60;;
72156;SDS011;60035;52.122;5.406;2023-06-10T05:17:17;12.10;;;5.05;;
72156;SDS011;60035;52.122;5.406;2023-06-10T05:19:44;10.23;;;5.03;;
72156;SDS011;60035;52.122;5.406;2023-06-10T05:22:10;10.85;;;4.97;;
72156;SDS011;60035;52.122;5.406;2023-06-10T05:24:37;10.25;;;4.80;;
72156;SDS011;60035;52.122;5.406;2023-06-10T05:27:04;10.10;;;5.45;;
72156;SDS011;60035;52.122;5.406;2023-06-10T05:29:35;11.23;;;5.60;;
72156;SDS011;60035;52.122;5.406;2023-06-10T05:32:01;15.98;;;5.78;;
72156;SDS011;60035;52.122;5.406;2023-06-10T05:34:29;11.73;;;5.20;;
72156;SDS011;60035;52.122;5.406;2023-06-10T05:36:57;11.68;;;5.32;;
72156;SDS011;60035;52.122;5.406;2023-06-10T05:39:24;10.32;;;5.40;;
72156;SDS011;60035;52.122;5.406;2023-06-10T05:41:50;11.35;;;5.18;;
72156;SDS011;60035;52.122;5.406;2023-06-10T05:44:17;11.73;;;5.25;;
72156;SDS011;60035;52.122;5.406;2023-06-10T05:46:43;10.35;;;5.38;;
72156;SDS011;60035;52.122;5.406;2023-06-10T05:49:10;11.75;;;5.38;;
72156;SDS011;60035;52.122;5.406;2023-06-10T05:51:37;10.15;;;5.45;;
72156;SDS011;60035;52.122;5.406;2023-06-10T05:54:04;11.25;;;5.28;;
72156;SDS011;60035;52.122;5.406;2023-06-10T05:56:31;12.30;;;5.72;;
72156;SDS011;60035;52.122;5.406;2023-06-10T05:58:57;10.98;;;5.57;;
72156;SDS011;60035;52.122;5.406;2023-06-10T06:01:26;11.35;;;5.13;;
72156;SDS011;60035;52.122;5.406;2023-06-10T06:03:53;10.48;;;5.32;;
72156;SDS011;60035;52.122;5.406;2023-06-10T06:06:19;12.70;;;6.10;;
72156;SDS011;60035;52.122;5.406;2023-06-10T06:08:49;13.27;;;5.97;;
72156;SDS011;60035;52.122;5.406;2023-06-10T06:11:16;10.18;;;5.18;;
72156;SDS011;60035;52.122;5.406;2023-06-10T06:13:42;12.70;;;5.38;;
72156;SDS011;60035;52.122;5.406;2023-06-10T06:16:09;11.15;;;5.20;;
72156;SDS011;60035;52.122;5.406;2023-06-10T06:18:36;10.38;;;5.32;;
72156;SDS011;60035;52.122;5.406;2023-06-10T06:21:02;10.82;;;5.72;;
72156;SDS011;60035;52.122;5.406;2023-06-10T06:23:31;11.15;;;5.30;;
72156;SDS011;60035;52.122;5.406;2023-06-10T06:25:58;12.32;;;5.55;;
72156;SDS011;60035;52.122;5.406;2023-06-10T06:28:25;11.60;;;5.63;;
72156;SDS011;60035;52.122;5.406;2023-06-10T06:30:56;11.38;;;5.43;;
72156;SDS011;60035;52.122;5.406;2023-06-10T06:33:23;12.25;;;5.45;;
72156;SDS011;60035;52.122;5.406;2023-06-10T06:35:52;14.65;;;5.95;;
72156;SDS011;60035;52.122;5.406;2023-06-10T06:38:18;9.57;;;5.50;;
72156;SDS011;60035;52.122;5.406;2023-06-10T06:40:45;12.38;;;5.47;;
72156;SDS011;60035;52.122;5.406;2023-06-10T06:43:12;9.98;;;5.38;;
72156;SDS011;60035;52.122;5.406;2023-06-10T06:45:38;9.30;;;5.20;;
72156;SDS011;60035;52.122;5.406;2023-06-10T06:48:04;11.50;;;5.38;;
72156;SDS011;60035;52.122;5.406;2023-06-10T06:50:32;9.77;;;5.07;;
72156;SDS011;60035;52.122;5.406;2023-06-10T06:52:58;10.52;;;5.70;;
72156;SDS011;60035;52.122;5.406;2023-06-10T06:55:25;12.25;;;5.38;;
72156;SDS011;60035;52.122;5.406;2023-06-10T06:57:51;11.32;;;5.25;;
72156;SDS011;60035;52.122;5.406;2023-06-10T07:00:21;11.10;;;5.10;;
72156;SDS011;60035;52.122;5.406;2023-06-10T07:02:48;11.70;;;5.00;;
72156;SDS011;60035;52.122;5.406;2023-06-10T07:05:14;10.13;;;5.30;;
72156;SDS011;60035;52.122;5.406;2023-06-10T07:07:41;10.23;;;5.05;;
72156;SDS011;60035;52.122;5.406;2023-06-10T07:10:08;10.02;;;4.88;;
72156;SDS011;60035;52.122;5.406;2023-06-10T07:12:34;10.82;;;5.30;;
72156;SDS011;60035;52.122;5.406;2023-06-10T07:15:01;11.55;;;4.97;;
72156;SDS011;60035;52.122;5.406;2023-06-10T07:17:27;10.98;;;5.32;;
72156;SDS011;60035;52.122;5.406;2023-06-10T07:19:54;9.93;;;5.35;;
72156;SDS011;60035;52.122;5.406;2023-06-10T07:22:23;14.55;;;6.18;;
72156;SDS011;60035;52.122;5.406;2023-06-10T07:24:50;13.07;;;5.30;;
72156;SDS011;60035;52.122;5.406;2023-06-10T07:27:18;10.18;;;5.32;;
72156;SDS011;60035;52.122;5.406;2023-06-10T07:29:44;13.70;;;5.32;;
72156;SDS011;60035;52.122;5.406;2023-06-10T07:32:11;9.68;;;4.90;;
72156;SDS011;60035;52.122;5.406;2023-06-10T07:34:38;12.65;;;5.40;;
72156;SDS011;60035;52.122;5.406;2023-06-10T07:37:04;10.05;;;5.22;;
72156;SDS011;60035;52.122;5.406;2023-06-10T07:39:31;13.85;;;5.40;;
72156;SDS011;60035;52.122;5.406;2023-06-10T07:41:58;10.52;;;4.97;;
72156;SDS011;60035;52.122;5.406;2023-06-10T07:44:24;9.48;;;5.00;;
72156;SDS011;60035;52.122;5.406;2023-06-10T07:46:51;13.35;;;5.68;;
72156;SDS011;60035;52.122;5.406;2023-06-10T07:49:18;11.98;;;4.78;;
72156;SDS011;60035;52.122;5.406;2023-06-10T07:51:44;9.82;;;5.00;;
72156;SDS011;60035;52.122;5.406;2023-06-10T07:54:11;13.35;;;5.43;;
72156;SDS011;60035;52.122;5.406;2023-06-10T07:56:38;9.20;;;5.15;;
72156;SDS011;60035;52.122;5.406;2023-06-10T07:59:05;9.95;;;5.13;;
72156;SDS011;60035;52.122;5.406;2023-06-10T08:01:32;11.15;;;5.10;;
72156;SDS011;60035;52.122;5.406;2023-06-10T08:03:59;10.38;;;5.00;;
72156;SDS011;60035;52.122;5.406;2023-06-10T08:06:26;8.90;;;4.30;;
72156;SDS011;60035;52.122;5.406;2023-06-10T08:08:52;12.32;;;4.55;;
72156;SDS011;60035;52.122;5.406;2023-06-10T08:11:19;10.50;;;4.57;;
72156;SDS011;60035;52.122;5.406;2023-06-10T08:13:46;11.48;;;5.32;;
72156;SDS011;60035;52.122;5.406;2023-06-10T08:16:13;12.02;;;4.82;;
72156;SDS011;60035;52.122;5.406;2023-06-10T08:18:40;14.10;;;5.47;;
72156;SDS011;60035;52.122;5.406;2023-06-10T08:21:06;13.27;;;5.32;;
72156;SDS011;60035;52.122;5.406;2023-06-10T08:23:33;9.77;;;5.30;;
72156;SDS011;60035;52.122;5.406;2023-06-10T08:26:00;9.60;;;5.15;;
72156;SDS011;60035;52.122;5.406;2023-06-10T08:28:26;10.48;;;4.97;;
72156;SDS011;60035;52.122;5.406;2023-06-10T08:30:53;10.30;;;5.03;;
72156;SDS011;60035;52.122;5.406;2023-06-10T08:33:22;11.95;;;5.30;;
72156;SDS011;60035;52.122;5.406;2023-06-10T08:35:49;10.35;;;4.90;;
72156;SDS011;60035;52.122;5.406;2023-06-10T08:38:15;11.40;;;5.05;;
72156;SDS011;60035;52.122;5.406;2023-06-10T08:40:42;10.88;;;5.18;;
72156;SDS011;60035;52.122;5.406;2023-06-10T08:43:43;8.98;;;4.85;;
72156;SDS011;60035;52.122;5.406;2023-06-10T08:46:10;8.85;;;4.70;;
72156;SDS011;60035;52.122;5.406;2023-06-10T08:48:39;9.15;;;4.43;;
72156;SDS011;60035;52.122;5.406;2023-06-10T08:51:10;8.88;;;4.22;;
72156;SDS011;60035;52.122;5.406;2023-06-10T08:53:41;10.95;;;5.00;;
72156;SDS011;60035;52.122;5.406;2023-06-10T08:56:16;8.75;;;5.15;;
72156;SDS011;60035;52.122;5.406;2023-06-10T08:58:43;8.98;;;5.07;;
72156;SDS011;60035;52.122;5.406;2023-06-10T09:01:12;10.32;;;5.13;;
72156;SDS011;60035;52.122;5.406;2023-06-10T09:03:39;11.77;;;5.55;;
72156;SDS011;60035;52.122;5.406;2023-06-10T09:06:07;10.00;;;4.40;;
72156;SDS011;60035;52.122;5.406;2023-06-10T09:08:35;8.57;;;4.90;;
72156;SDS011;60035;52.122;5.406;2023-06-10T09:11:02;9.02;;;4.68;;
72156;SDS011;60035;52.122;5.406;2023-06-10T09:13:29;9.75;;;5.07;;
72156;SDS011;60035;52.122;5.406;2023-06-10T09:15:55;10.85;;;4.93;;
72156;SDS011;60035;52.122;5.406;2023-06-10T09:18:27;9.73;;;4.53;;
72156;SDS011;60035;52.122;5.406;2023-06-10T09:20:58;8.98;;;4.95;;
72156;SDS011;60035;52.122;5.406;2023-06-10T09:23:25;9.20;;;4.50;;
72156;SDS011;60035;52.122;5.406;2023-06-10T09:25:56;9.07;;;4.68;;
72156;SDS011;60035;52.122;5.406;2023-06-10T09:28:24;10.77;;;4.60;;
72156;SDS011;60035;52.122;5.406;2023-06-10T09:31:01;9.57;;;4.55;;
72156;SDS011;60035;52.122;5.406;2023-06-10T09:33:29;10.23;;;4.47;;
72156;SDS011;60035;52.122;5.406;2023-06-10T09:35:55;9.77;;;4.60;;
72156;SDS011;60035;52.122;5.406;2023-06-10T09:38:34;9.63;;;4.70;;
72156;SDS011;60035;52.122;5.406;2023-06-10T09:41:01;8.60;;;4.53;;
72156;SDS011;60035;52.122;5.406;2023-06-10T09:43:42;8.80;;;4.72;;
72156;SDS011;60035;52.122;5.406;2023-06-10T09:46:18;8.32;;;4.38;;
72156;SDS011;60035;52.122;5.406;2023-06-10T09:48:46;8.77;;;4.10;;
72156;SDS011;60035;52.122;5.406;2023-06-10T09:51:14;7.68;;;4.25;;
72156;SDS011;60035;52.122;5.406;2023-06-10T09:53:47;9.18;;;4.40;;
72156;SDS011;60035;52.122;5.406;2023-06-10T09:56:15;9.02;;;4.35;;
72156;SDS011;60035;52.122;5.406;2023-06-10T09:58:42;7.40;;;3.95;;
72156;SDS011;60035;52.122;5.406;2023-06-10T10:01:10;8.77;;;4.60;;
72156;SDS011;60035;52.122;5.406;2023-06-10T10:03:45;7.65;;;4.00;;
72156;SDS011;60035;52.122;5.406;2023-06-10T10:06:12;10.50;;;4.07;;
72156;SDS011;60035;52.122;5.406;2023-06-10T10:08:41;7.35;;;4.20;;
72156;SDS011;60035;52.122;5.406;2023-06-10T10:11:07;8.23;;;3.58;;
72156;SDS011;60035;52.122;5.406;2023-06-10T10:13:35;8.63;;;3.85;;
72156;SDS011;60035;52.122;5.406;2023-06-10T10:16:10;9.43;;;3.97;;
72156;SDS011;60035;52.122;5.406;2023-06-10T10:18:42;7.55;;;3.67;;
72156;SDS011;60035;52.122;5.406;2023-06-10T10:21:12;10.55;;;4.25;;
72156;SDS011;60035;52.122;5.406;2023-06-10T10:24:01;7.47;;;4.00;;
72156;SDS011;60035;52.122;5.406;2023-06-10T10:26:26;8.68;;;3.88;;
72156;SDS011;60035;52.122;5.406;2023-06-10T10:28:58;7.35;;;4.18;;
72156;SDS011;60035;52.122;5.406;2023-06-10T10:31:41;9.68;;;4.03;;
72156;SDS011;60035;52.122;5.406;2023-06-10T10:34:15;7.60;;;4.18;;
72156;SDS011;60035;52.122;5.406;2023-06-10T10:36:43;7.97;;;4.30;;
72156;SDS011;60035;52.122;5.406;2023-06-10T10:39:11;9.07;;;3.90;;
72156;SDS011;60035;52.122;5.406;2023-06-10T10:41:38;8.45;;;4.03;;
72156;SDS011;60035;52.122;5.406;2023-06-10T10:44:06;8.30;;;4.15;;
72156;SDS011;60035;52.122;5.406;2023-06-10T10:46:43;8.00;;;3.83;;
72156;SDS011;60035;52.122;5.406;2023-06-10T10:49:20;8.45;;;4.47;;
72156;SDS011;60035;52.122;5.406;2023-06-10T10:52:00;8.30;;;4.10;;
72156;SDS011;60035;52.122;5.406;2023-06-10T10:54:28;7.95;;;4.10;;
72156;SDS011;60035;52.122;5.406;2023-06-10T11:02:15;7.25;;;3.55;;
72156;SDS011;60035;52.122;5.406;2023-06-10T11:04:47;6.68;;;3.97;;
72156;SDS011;60035;52.122;5.406;2023-06-10T11:07:15;7.75;;;3.97;;
72156;SDS011;60035;52.122;5.406;2023-06-10T11:15:18;9.93;;;4.85;;
72156;SDS011;60035;52.122;5.406;2023-06-10T11:33:48;8.20;;;4.32;;
72156;SDS011;60035;52.122;5.406;2023-06-10T11:36:19;7.88;;;4.30;;
72156;SDS011;60035;52.122;5.406;2023-06-10T11:38:45;8.25;;;4.45;;
72156;SDS011;60035;52.122;5.406;2023-06-10T11:41:13;7.20;;;4.15;;
72156;SDS011;60035;52.122;5.406;2023-06-10T11:43:42;7.80;;;4.00;;
72156;SDS011;60035;52.122;5.406;2023-06-10T11:46:12;7.75;;;3.50;;
72156;SDS011;60035;52.122;5.406;2023-06-10T11:48:52;7.90;;;4.22;;
72156;SDS011;60035;52.122;5.406;2023-06-10T11:51:20;8.40;;;4.40;;
72156;SDS011;60035;52.122;5.406;2023-06-10T11:53:48;7.93;;;4.35;;
72156;SDS011;60035;52.122;5.406;2023-06-10T11:56:21;8.43;;;4.72;;
72156;SDS011;60035;52.122;5.406;2023-06-10T11:58:56;7.55;;;4.25;;
72156;SDS011;60035;52.122;5.406;2023-06-10T12:01:25;8.68;;;3.88;;
72156;SDS011;60035;52.122;5.406;2023-06-10T12:06:26;8.45;;;4.38;;
72156;SDS011;60035;52.122;5.406;2023-06-10T12:08:53;8.27;;;4.63;;
72156;SDS011;60035;52.122;5.406;2023-06-10T12:11:20;8.48;;;4.68;;
72156;SDS011;60035;52.122;5.406;2023-06-10T12:13:48;9.60;;;4.82;;
72156;SDS011;60035;52.122;5.406;2023-06-10T12:16:16;9.10;;;4.57;;
72156;SDS011;60035;52.122;5.406;2023-06-10T12:18:43;6.88;;;4.45;;
72156;SDS011;60035;52.122;5.406;2023-06-10T12:21:18;8.10;;;4.78;;
72156;SDS011;60035;52.122;5.406;2023-06-10T12:26:34;7.93;;;4.75;;
72156;SDS011;60035;52.122;5.406;2023-06-10T12:29:12;8.05;;;4.40;;
72156;SDS011;60035;52.122;5.406;2023-06-10T12:32:03;8.68;;;5.13;;
72156;SDS011;60035;52.122;5.406;2023-06-10T12:34:37;7.78;;;4.90;;
72156;SDS011;60035;52.122;5.406;2023-06-10T12:37:06;7.30;;;4.35;;
72156;SDS011;60035;52.122;5.406;2023-06-10T12:39:40;8.50;;;4.60;;
72156;SDS011;60035;52.122;5.406;2023-06-10T12:42:12;9.95;;;4.72;;
72156;SDS011;60035;52.122;5.406;2023-06-10T12:44:39;10.15;;;5.53;;
72156;SDS011;60035;52.122;5.406;2023-06-10T12:47:10;8.27;;;5.00;;
72156;SDS011;60035;52.122;5.406;2023-06-10T12:49:38;7.75;;;4.97;;
72156;SDS011;60035;52.122;5.406;2023-06-10T12:52:06;7.55;;;4.88;;
72156;SDS011;60035;52.122;5.406;2023-06-10T12:54:33;8.82;;;5.25;;
72156;SDS011;60035;52.122;5.406;2023-06-10T12:57:00;8.85;;;4.75;;
72156;SDS011;60035;52.122;5.406;2023-06-10T12:59:33;8.27;;;4.97;;
72156;SDS011;60035;52.122;5.406;2023-06-10T13:02:00;9.05;;;5.13;;
72156;SDS011;60035;52.122;5.406;2023-06-10T13:04:26;8.95;;;4.50;;
72156;SDS011;60035;52.122;5.406;2023-06-10T13:06:53;6.95;;;4.55;;
72156;SDS011;60035;52.122;5.406;2023-06-10T13:09:19;8.70;;;4.90;;
72156;SDS011;60035;52.122;5.406;2023-06-10T13:11:46;11.90;;;4.85;;
72156;SDS011;60035;52.122;5.406;2023-06-10T13:14:12;6.78;;;4.40;;
72156;SDS011;60035;52.122;5.406;2023-06-10T13:16:39;8.23;;;4.68;;
72156;SDS011;60035;52.122;5.406;2023-06-10T13:19:06;8.18;;;4.63;;
72156;SDS011;60035;52.122;5.406;2023-06-10T13:21:33;7.20;;;4.50;;
72156;SDS011;60035;52.122;5.406;2023-06-10T13:24:00;8.50;;;4.80;;
72156;SDS011;60035;52.122;5.406;2023-06-10T13:26:27;7.90;;;5.28;;
72156;SDS011;60035;52.122;5.406;2023-06-10T13:28:53;6.88;;;4.47;;
72156;SDS011;60035;52.122;5.406;2023-06-10T13:31:23;8.95;;;5.07;;
72156;SDS011;60035;52.122;5.406;2023-06-10T13:33:50;7.85;;;4.57;;
72156;SDS011;60035;52.122;5.406;2023-06-10T13:36:16;8.93;;;4.57;;
72156;SDS011;60035;52.122;5.406;2023-06-10T13:38:43;7.53;;;4.40;;
72156;SDS011;60035;52.122;5.406;2023-06-10T13:41:09;8.48;;;4.97;;
72156;SDS011;60035;52.122;5.406;2023-06-10T13:43:36;8.23;;;3.97;;
72156;SDS011;60035;52.122;5.406;2023-06-10T13:46:02;9.25;;;5.18;;
72156;SDS011;60035;52.122;5.406;2023-06-10T13:48:29;7.93;;;4.00;;
72156;SDS011;60035;52.122;5.406;2023-06-10T13:50:56;7.35;;;4.40;;
72156;SDS011;60035;52.122;5.406;2023-06-10T13:53:23;8.02;;;4.40;;
72156;SDS011;60035;52.122;5.406;2023-06-10T13:55:49;8.48;;;4.85;;
72156;SDS011;60035;52.122;5.406;2023-06-10T13:58:16;7.57;;;4.38;;
72156;SDS011;60035;52.122;5.406;2023-06-10T14:00:42;9.27;;;4.55;;
72156;SDS011;60035;52.122;5.406;2023-06-10T14:03:09;6.72;;;3.60;;
72156;SDS011;60035;52.122;5.406;2023-06-10T14:05:36;7.68;;;4.82;;
72156;SDS011;60035;52.122;5.406;2023-06-10T14:08:02;8.30;;;3.83;;
72156;SDS011;60035;52.122;5.406;2023-06-10T14:10:29;7.32;;;4.85;;
72156;SDS011;60035;52.122;5.406;2023-06-10T14:12:56;8.77;;;4.18;;
72156;SDS011;60035;52.122;5.406;2023-06-10T14:15:22;9.88;;;5.00;;
72156;SDS011;60035;52.122;5.406;2023-06-10T14:17:49;6.20;;;4.20;;
72156;SDS011;60035;52.122;5.406;2023-06-10T14:20:16;9.68;;;4.75;;
72156;SDS011;60035;52.122;5.406;2023-06-10T14:22:42;13.38;;;4.93;;
72156;SDS011;60035;52.122;5.406;2023-06-10T14:25:09;6.80;;;4.18;;
72156;SDS011;60035;52.122;5.406;2023-06-10T14:27:37;7.40;;;4.65;;
72156;SDS011;60035;52.122;5.406;2023-06-10T14:30:04;8.02;;;4.85;;
72156;SDS011;60035;52.122;5.406;2023-06-10T14:32:31;6.90;;;4.68;;
72156;SDS011;60035;52.122;5.406;2023-06-10T14:34:58;7.25;;;4.53;;
72156;SDS011;60035;52.122;5.406;2023-06-10T14:37:25;7.72;;;4.55;;
72156;SDS011;60035;52.122;5.406;2023-06-10T14:39:51;8.43;;;4.63;;
72156;SDS011;60035;52.122;5.406;2023-06-10T14:42:18;9.75;;;4.50;;
72156;SDS011;60035;52.122;5.406;2023-06-10T14:44:44;7.57;;;4.88;;
72156;SDS011;60035;52.122;5.406;2023-06-10T14:47:10;8.00;;;4.47;;
72156;SDS011;60035;52.122;5.406;2023-06-10T14:49:37;6.65;;;3.60;;
72156;SDS011;60035;52.122;5.406;2023-06-10T14:52:04;7.50;;;4.40;;
72156;SDS011;60035;52.122;5.406;2023-06-10T14:54:30;7.43;;;4.40;;
72156;SDS011;60035;52.122;5.406;2023-06-10T14:56:57;7.05;;;3.80;;
72156;SDS011;60035;52.122;5.406;2023-06-10T14:59:23;6.78;;;4.80;;
72156;SDS011;60035;52.122;5.406;2023-06-10T15:01:50;9.02;;;4.88;;
72156;SDS011;60035;52.122;5.406;2023-06-10T15:04:16;6.53;;;4.10;;
72156;SDS011;60035;52.122;5.406;2023-06-10T15:06:48;6.80;;;4.25;;
72156;SDS011;60035;52.122;5.406;2023-06-10T15:09:15;6.82;;;4.00;;
72156;SDS011;60035;52.122;5.406;2023-06-10T15:11:42;8.45;;;4.25;;
72156;SDS011;60035;52.122;5.406;2023-06-10T15:14:08;7.32;;;4.85;;
72156;SDS011;60035;52.122;5.406;2023-06-10T15:16:35;7.07;;;4.65;;
72156;SDS011;60035;52.122;5.406;2023-06-10T15:19:01;7.57;;;4.95;;
72156;SDS011;60035;52.122;5.406;2023-06-10T15:21:28;7.05;;;4.70;;